Time,TemperatureF,DewpointF,PressureIn,WindDirection,WindDirectionDegrees,WindSpeedMPH,WindSpeedGustMPH,Humidity,HourlyPrecipIn,Conditions,Clouds,dailyrainin,SolarRadiationWatts/m^2,SoftwareType,DateUTC
2013-09-07 00:24:00,59.0,58.0,-100.00,NE,56,0.0,0.0,97,0.00,,,0.00,0.000000,,2013-09-07 04:24:00,
2013-09-07 00:34:00,59.0,58.0,-100.00,NE,56,0.0,0.0,97,0.00,,,0.00,0.000000,,2013-09-07 04:34:00,
2013-09-07 00:43:00,59.0,58.0,-100.00,NE,56,0.0,0.0,97,0.00,,,0.00,0.000000,,2013-09-07 04:43:00,
2013-09-07 01:13:00,58.0,57.0,-100.00,NE,41,0.0,103.0,98,0.00,,,0.00,0.000000,,2013-09-07 05:13:00,
2013-09-07 01:23:00,58.0,57.0,-100.00,NE,41,0.0,103.0,98,0.00,,,0.00,0.000000,,2013-09-07 05:23:00,
2013-09-07 01:33:00,58.0,57.0,-100.00,NE,41,0.0,103.0,98,0.00,,,0.00,0.000000,,2013-09-07 05:33:00,
2013-09-07 01:42:00,58.0,57.0,-100.00,NE,41,0.0,103.0,98,0.00,,,0.00,0.000000,,2013-09-07 05:42:00,
2013-09-07 02:13:00,58.0,57.0,-100.00,SW,231,1.0,90.0,98,0.00,,,0.00,0.000000,,2013-09-07 06:13:00,
2013-09-07 02:22:00,58.0,57.0,-100.00,SW,231,1.0,90.0,98,0.00,,,0.00,0.000000,,2013-09-07 06:22:00,
2013-09-07 02:33:00,58.0,57.0,-100.00,SW,231,1.0,90.0,98,0.00,,,0.00,0.000000,,2013-09-07 06:33:00,
2013-09-07 02:42:00,58.0,57.0,-100.00,SW,231,1.0,90.0,98,0.00,,,0.00,0.000000,,2013-09-07 06:42:00,
2013-09-07 03:12:00,56.0,56.0,-100.00,NE,46,0.0,3.0,99,0.00,,,0.00,0.000000,,2013-09-07 07:12:00,
2013-09-07 03:22:00,56.0,56.0,-100.00,NE,46,0.0,3.0,99,0.00,,,0.00,0.000000,,2013-09-07 07:22:00,
2013-09-07 03:33:00,56.0,56.0,-100.00,NE,46,0.0,3.0,99,0.00,,,0.00,0.000000,,2013-09-07 07:33:00,
2013-09-07 03:42:00,56.0,56.0,-100.00,NE,46,0.0,3.0,99,0.00,,,0.00,0.000000,,2013-09-07 07:42:00,
2013-09-07 04:12:00,56.0,56.0,-100.00,North,5,0.0,10.0,99,0.00,,,0.00,0.000000,,2013-09-07 08:12:00,
2013-09-07 04:22:00,56.0,56.0,-100.00,North,5,0.0,10.0,99,0.00,,,0.00,0.000000,,2013-09-07 08:22:00,
2013-09-07 04:32:00,56.0,56.0,-100.00,North,5,0.0,10.0,99,0.00,,,0.00,0.000000,,2013-09-07 08:32:00,
2013-09-07 04:43:00,56.0,56.0,-100.00,North,5,0.0,10.0,99,0.00,,,0.00,0.000000,,2013-09-07 08:43:00,
2013-09-07 05:12:00,55.0,55.0,-100.00,ENE,78,0.0,0.0,99,0.00,,,0.00,0.000000,,2013-09-07 09:12:00,
2013-09-07 05:21:00,55.0,55.0,-100.00,ENE,78,0.0,0.0,99,0.00,,,0.00,0.000000,,2013-09-07 09:21:00,
2013-09-07 05:32:00,55.0,55.0,-100.00,ENE,78,0.0,0.0,99,0.00,,,0.00,0.000000,,2013-09-07 09:32:00,
2013-09-07 05:42:00,55.0,55.0,-100.00,ENE,78,0.0,0.0,99,0.00,,,0.00,0.000000,,2013-09-07 09:42:00,
2013-09-07 06:11:00,54.0,54.0,-100.00,NE,42,3.0,7.0,99,0.00,,,0.00,0.000000,,2013-09-07 10:11:00,
2013-09-07 06:21:00,54.0,54.0,-100.00,NE,42,3.0,7.0,99,0.00,,,0.00,0.000000,,2013-09-07 10:21:00,
2013-09-07 06:31:00,54.0,54.0,-100.00,NE,42,3.0,7.0,99,0.00,,,0.00,0.000000,,2013-09-07 10:31:00,
2013-09-07 06:41:00,54.0,54.0,-100.00,NE,42,3.0,7.0,99,0.00,,,0.00,0.000000,,2013-09-07 10:41:00,
2013-09-07 07:13:00,55.0,55.0,-100.00,ENE,70,0.0,2.0,99,0.00,,,-99.99,0.000000,,2013-09-07 11:13:00,
2013-09-07 07:23:00,55.0,55.0,-100.00,ENE,70,0.0,2.0,99,0.00,,,-99.99,0.000000,,2013-09-07 11:23:00,
2013-09-07 07:33:00,55.0,55.0,-100.00,ENE,70,0.0,2.0,99,0.00,,,-99.99,0.000000,,2013-09-07 11:33:00,
2013-09-07 07:43:00,55.0,55.0,-100.00,ENE,70,0.0,2.0,99,0.00,,,-99.99,0.000000,,2013-09-07 11:43:00,
2013-09-07 08:13:00,55.0,55.0,-100.00,NNE,19,0.0,0.0,99,0.00,,,0.00,10.000000,,2013-09-07 12:13:00,
2013-09-07 08:22:00,55.0,55.0,-100.00,NNE,19,0.0,0.0,99,0.00,,,0.00,10.000000,,2013-09-07 12:22:00,
2013-09-07 08:32:00,55.0,55.0,-100.00,NNE,19,0.0,0.0,99,0.00,,,0.00,10.000000,,2013-09-07 12:32:00,
2013-09-07 08:42:00,55.0,55.0,-100.00,NNE,19,0.0,0.0,99,0.00,,,0.00,10.000000,,2013-09-07 12:42:00,
2013-09-07 09:12:00,62.0,62.0,-100.00,ESE,111,0.0,4.0,100,0.00,,,-99.99,152.000000,,2013-09-07 13:12:00,
2013-09-07 09:21:00,62.0,62.0,-100.00,ESE,111,0.0,4.0,100,0.00,,,-99.99,152.000000,,2013-09-07 13:21:00,
2013-09-07 09:32:00,62.0,62.0,-100.00,ESE,111,0.0,4.0,100,0.00,,,-99.99,152.000000,,2013-09-07 13:32:00,
2013-09-07 09:42:00,62.0,62.0,-100.00,ESE,111,0.0,4.0,100,0.00,,,-99.99,152.000000,,2013-09-07 13:42:00,
2013-09-07 10:11:00,71.0,61.0,-100.00,SW,227,5.0,11.0,71,0.00,,,0.00,351.000000,,2013-09-07 14:11:00,
2013-09-07 10:22:00,71.0,61.0,-100.00,SW,227,5.0,11.0,71,0.00,,,0.00,351.000000,,2013-09-07 14:22:00,
2013-09-07 10:32:00,71.0,61.0,-100.00,SW,227,5.0,11.0,71,0.00,,,0.00,351.000000,,2013-09-07 14:32:00,
2013-09-07 10:42:00,71.0,61.0,-100.00,SW,227,5.0,11.0,71,0.00,,,0.00,351.000000,,2013-09-07 14:42:00,
2013-09-07 11:11:00,77.0,64.0,-100.00,SW,226,6.0,9.0,65,0.00,,,0.00,550.000000,,2013-09-07 15:11:00,
2013-09-07 11:23:00,77.0,64.0,-100.00,SW,226,6.0,9.0,65,0.00,,,0.00,550.000000,,2013-09-07 15:23:00,
2013-09-07 11:34:00,77.0,64.0,-100.00,SW,226,6.0,9.0,65,0.00,,,0.00,550.000000,,2013-09-07 15:34:00,
2013-09-07 11:44:00,77.0,64.0,-100.00,SW,226,6.0,9.0,65,0.00,,,0.00,550.000000,,2013-09-07 15:44:00,
2013-09-07 12:13:00,80.0,66.0,-100.00,SW,219,5.0,11.0,62,0.00,,,0.00,729.000000,,2013-09-07 16:13:00,
2013-09-07 12:24:00,80.0,66.0,-100.00,SW,219,5.0,11.0,62,0.00,,,0.00,729.000000,,2013-09-07 16:24:00,
2013-09-07 12:34:00,80.0,66.0,-100.00,SW,219,5.0,11.0,62,0.00,,,0.00,729.000000,,2013-09-07 16:34:00,
2013-09-07 12:43:00,80.0,66.0,-100.00,SW,219,5.0,11.0,62,0.00,,,0.00,729.000000,,2013-09-07 16:43:00,
2013-09-07 13:12:00,81.0,65.0,-100.00,WSW,237,8.0,12.0,59,0.00,,,0.00,766.000000,,2013-09-07 17:12:00,
2013-09-07 13:24:00,81.0,65.0,-100.00,WSW,237,8.0,12.0,59,0.00,,,0.00,766.000000,,2013-09-07 17:24:00,
2013-09-07 13:34:00,81.0,65.0,-100.00,WSW,237,8.0,12.0,59,0.00,,,0.00,766.000000,,2013-09-07 17:34:00,
2013-09-07 13:43:00,81.0,65.0,-100.00,WSW,237,8.0,12.0,59,0.00,,,0.00,766.000000,,2013-09-07 17:43:00,
2013-09-07 14:13:00,82.0,65.0,-100.00,WSW,249,7.0,12.0,57,0.00,,,0.00,736.000000,,2013-09-07 18:13:00,
2013-09-07 14:22:00,82.0,65.0,-100.00,WSW,249,7.0,12.0,57,0.00,,,0.00,736.000000,,2013-09-07 18:22:00,
2013-09-07 14:32:00,82.0,65.0,-100.00,WSW,249,7.0,12.0,57,0.00,,,0.00,736.000000,,2013-09-07 18:32:00,
2013-09-07 14:43:00,82.0,65.0,-100.00,WSW,249,7.0,12.0,57,0.00,,,0.00,736.000000,,2013-09-07 18:43:00,
2013-09-07 15:11:00,84.0,63.0,-100.00,West,260,6.0,13.0,49,0.00,,,0.00,884.000000,,2013-09-07 19:11:00,
2013-09-07 15:22:00,84.0,63.0,-100.00,West,260,6.0,13.0,49,0.00,,,0.00,884.000000,,2013-09-07 19:22:00,
2013-09-07 15:32:00,84.0,63.0,-100.00,West,260,6.0,13.0,49,0.00,,,0.00,884.000000,,2013-09-07 19:32:00,
2013-09-07 15:42:00,84.0,63.0,-100.00,West,260,6.0,13.0,49,0.00,,,0.00,884.000000,,2013-09-07 19:42:00,
2013-09-07 16:12:00,86.0,63.0,-100.00,SW,221,7.0,12.0,46,0.00,,,0.00,771.000000,,2013-09-07 20:12:00,
2013-09-07 16:22:00,86.0,63.0,-100.00,SW,221,7.0,12.0,46,0.00,,,0.00,771.000000,,2013-09-07 20:22:00,
2013-09-07 16:32:00,86.0,63.0,-100.00,SW,221,7.0,12.0,46,0.00,,,0.00,771.000000,,2013-09-07 20:32:00,
2013-09-07 16:42:00,86.0,63.0,-100.00,SW,221,7.0,12.0,46,0.00,,,0.00,771.000000,,2013-09-07 20:42:00,
2013-09-07 17:12:00,84.0,65.0,-100.00,SSW,197,5.0,17.0,53,0.00,,,0.00,535.000000,,2013-09-07 21:12:00,
2013-09-07 17:22:00,84.0,65.0,-100.00,SSW,197,5.0,17.0,53,0.00,,,0.00,535.000000,,2013-09-07 21:22:00,
2013-09-07 17:34:00,84.0,65.0,-100.00,SSW,197,5.0,17.0,53,0.00,,,0.00,535.000000,,2013-09-07 21:34:00,
2013-09-07 17:44:00,84.0,65.0,-100.00,SSW,197,5.0,17.0,53,0.00,,,0.00,535.000000,,2013-09-07 21:44:00,
2013-09-07 18:13:00,83.0,65.0,-100.00,SSW,193,5.0,19.0,54,0.00,,,0.00,466.000000,,2013-09-07 22:13:00,
2013-09-07 18:24:00,83.0,65.0,-100.00,SSW,193,5.0,19.0,54,0.00,,,0.00,466.000000,,2013-09-07 22:24:00,
2013-09-07 18:33:00,83.0,65.0,-100.00,SSW,193,5.0,19.0,54,0.00,,,0.00,466.000000,,2013-09-07 22:33:00,
2013-09-07 18:43:00,83.0,65.0,-100.00,SSW,193,5.0,19.0,54,0.00,,,0.00,466.000000,,2013-09-07 22:43:00,
2013-09-07 19:12:00,83.0,66.0,-100.00,South,188,3.0,10.0,56,0.00,,,0.00,263.000000,,2013-09-07 23:12:00,
2013-09-07 19:23:00,83.0,66.0,-100.00,South,188,3.0,10.0,56,0.00,,,0.00,263.000000,,2013-09-07 23:23:00,
2013-09-07 19:34:00,83.0,66.0,-100.00,South,188,3.0,10.0,56,0.00,,,0.00,263.000000,,2013-09-07 23:34:00,
2013-09-07 19:42:00,83.0,66.0,-100.00,South,188,3.0,10.0,56,0.00,,,0.00,263.000000,,2013-09-07 23:42:00,
2013-09-07 20:22:00,77.0,66.0,-100.00,SW,233,1.0,5.0,69,0.00,,,0.00,90.000000,,2013-09-08 00:22:00,
2013-09-07 20:32:00,77.0,66.0,-100.00,SW,233,1.0,5.0,69,0.00,,,0.00,90.000000,,2013-09-08 00:32:00,
2013-09-07 20:42:00,77.0,66.0,-100.00,SW,233,1.0,5.0,69,0.00,,,0.00,90.000000,,2013-09-08 00:42:00,
2013-09-07 21:42:00,70.0,67.0,-100.00,SW,234,3.0,132.0,91,0.00,,,0.00,4.000000,,2013-09-08 01:42:00,
2013-09-07 22:12:00,68.0,67.0,-100.00,SW,231,3.0,130.0,95,0.00,,,0.00,0.000000,,2013-09-08 02:12:00,
2013-09-07 22:23:00,68.0,67.0,-100.00,SW,231,3.0,130.0,95,0.00,,,0.00,0.000000,,2013-09-08 02:23:00,
2013-09-07 22:32:00,68.0,67.0,-100.00,SW,231,3.0,130.0,95,0.00,,,0.00,0.000000,,2013-09-08 02:32:00,
2013-09-07 22:43:00,68.0,67.0,-100.00,SW,231,3.0,130.0,95,0.00,,,0.00,0.000000,,2013-09-08 02:43:00,
2013-09-07 23:12:00,67.0,66.0,-100.00,SSE,160,3.0,105.0,98,0.00,,,0.00,0.000000,,2013-09-08 03:12:00,
2013-09-07 23:23:00,67.0,66.0,-100.00,SSE,160,3.0,105.0,98,0.00,,,0.00,0.000000,,2013-09-08 03:23:00,
2013-09-07 23:34:00,67.0,66.0,-100.00,SSE,160,3.0,105.0,98,0.00,,,0.00,0.000000,,2013-09-08 03:34:00,
2013-09-07 23:44:00,67.0,66.0,-100.00,SSE,160,3.0,105.0,98,0.00,,,0.00,0.000000,,2013-09-08 03:44:00,